SPSO

Capitán FAP Renán Elías Olivera International Airport

Pisco, Peru
SPSO 202300Z 2100/2124 34004KT CAVOK TX24/2119Z TN16/2111Z FM210600 VRB03KT 7000 BKN004 TEMPO 2109/2111 VRB04KT 2000 BR OVC002 BECMG 2115/2118 33010KT CAVOK
Issued Valid From Valid To
Apr-20 @ 23:00 UTC
(5 hours ago)
Apr-21 @ 00:00 UTC
(4 hours ago)
Apr-22 @ 00:00 UTC
(in 20 hours)
Apr-21 @ 00:00 to Apr-21 @ 06:00
SPSO 202300Z 2100/2124 34004KT CAVOK TX24/2119Z TN16/2111Z
Wind Visibility Clouds
340° at 4 knots 10,000+ meters
  • No significant clouds
From Apr-21 @ 06:00 to Apr-21 @ 15:00
FM210600 VRB03KT 7000 BKN004
Wind Visibility Clouds
Variable at 3 knots 7,001 meters
  • Broken at 400' AGL
Temporary Apr-21 @ 09:00 to Apr-21 @ 11:00
TEMPO 2109/2111 VRB04KT 2000 BR OVC002
Wind Visibility Clouds Conditions
Variable at 4 knots 1,996 meters
  • Overcast at 200' AGL
  • Mist
Becoming Apr-21 @ 15:00 to Apr-22 @ 00:00
BECMG 2115/2118 33010KT CAVOK
Wind Visibility Clouds Conditions
330° at 10 knots 10,000+ meters
  • No significant clouds
SPSO 202300Z 2100/2124 34004KT CAVOK TX24/2119Z TN16/2111Z FM210600 VRB03KT 7000 BKN004 TEMPO 2109/2111 VRB04KT 2000 BR OVC002 BECMG 2115/2118 33010KT CAVOK
Issued Apr-20 @ 23:00 UTC
(5 hours ago)
Valid From Apr-21 @ 00:00 UTC
(4 hours ago)
Valid To Apr-22 @ 00:00 UTC
(in 20 hours)
Apr-21 @ 00:00 - Apr-21 @ 06:00
Wind Visibility
340° at 4 knots 10,000+ meters
Clouds
  • No significant clouds
From Apr-21 @ 06:00 - Apr-21 @ 15:00
Wind Visibility
Variable at 3 knots 7,001 meters
Clouds
  • Broken at 400' AGL
Temporary Apr-21 @ 09:00 - Apr-21 @ 11:00
Wind Visibility
Variable at 4 knots 1,996 meters
Clouds
  • Overcast at 200' AGL
Conditions
  • Mist
Becoming Apr-21 @ 15:00 - Apr-22 @ 00:00
Wind Visibility
330° at 10 knots 10,000+ meters
Clouds
  • No significant clouds
Conditions